TNCM

Details ICAO TNCM (SXM)
Name St Maarten - Princess Juliana Intl
Region Caribbean Netherlands, Aruba, Curaçao, Sint Maarten
Timezone Unknown (UTC+0.0)
Plans Departing 2525
Arriving 3838
Stats Elevation 12 ft / 4 m (AMSL)
Location 18.040889° -63.108974°
Runways 1
Magnetic Variation 14.339° W
Sunrise 2018-06-19 09:38:45 UTC / 2018-06-19 09:38:45 Local
Sunset 2018-06-19 22:51:23 UTC / 2018-06-19 22:51:23 Local
Advertisement - Login to hide

Runways

ID Width Length Bearing (true) Bearing (mag) Surface Threshold Offset Overrun Length
10 148 ft / 45 m 7,464 ft / 2,275 m 81.43° 95.77° Asphalt 0 ft / 0 m 151 ft / 46 m
28 148 ft / 45 m 7,464 ft / 2,275 m 261.44° 275.78° Asphalt 397 ft / 121 m 0 ft / 0 m

Map

Weather


0- 5 10 15 20 25 30 35+ Temperature / ° C

Clouds and Precipitation
Forecast for 2018-06-19 06:00 UTC. Updated 5 hours ago

Ground ~20,000 ft ~40,000 ft Winds

METAR

TNCM 190800Z 10006KT 080V150 9999 FEW020 27/23 Q1016 A3003

TAF

TAF TNCM 190537Z 1906/2006 10008KT P6SM VCSH SCT018 TEMPO 1908/1912 -SHRA BKN018 FM191200 12012KT P6SM VCSH SCT020 FM192300 12008KT P6SM FEW018

Frequencies

Tower 118.70 MHz JULIANA TWR
Approach 128.94 MHz JULIANA APP
Warning: Do not use this data for real-world aviation or navigation. No guarantee of current accuracy is given.